sensor_id;sensor_type;location;lat;lon;timestamp;temperature;humidity
27270;DHT22;14769;56.934;24.176;2022-09-09T00:00:34;7.00;99.90
27270;DHT22;14769;56.934;24.176;2022-09-09T00:03:02;7.00;99.90
27270;DHT22;14769;56.934;24.176;2022-09-09T00:04:34;7.00;99.90
27270;DHT22;14769;56.934;24.176;2022-09-09T00:05:44;7.00;99.90
27270;DHT22;14769;56.934;24.176;2022-09-09T00:07:09;6.90;99.90
27270;DHT22;14769;56.934;24.176;2022-09-09T00:08:28;6.90;99.90
27270;DHT22;14769;56.934;24.176;2022-09-09T00:10:01;6.80;99.90
27270;DHT22;14769;56.934;24.176;2022-09-09T00:11:05;6.90;99.90
27270;DHT22;14769;56.934;24.176;2022-09-09T00:15:03;6.90;99.90
27270;DHT22;14769;56.934;24.176;2022-09-09T00:16:15;7.20;99.90
27270;DHT22;14769;56.934;24.176;2022-09-09T00:19:24;6.80;99.90
27270;DHT22;14769;56.934;24.176;2022-09-09T00:20:52;6.80;99.90
27270;DHT22;14769;56.934;24.176;2022-09-09T00:22:17;6.80;99.90
27270;DHT22;14769;56.934;24.176;2022-09-09T00:23:28;6.70;99.90
27270;DHT22;14769;56.934;24.176;2022-09-09T00:26:42;6.70;99.90
27270;DHT22;14769;56.934;24.176;2022-09-09T00:27:47;6.70;99.90
27270;DHT22;14769;56.934;24.176;2022-09-09T00:29:16;6.60;99.90
27270;DHT22;14769;56.934;24.176;2022-09-09T00:30:27;6.70;99.90
27270;DHT22;14769;56.934;24.176;2022-09-09T00:31:32;6.70;99.90
27270;DHT22;14769;56.934;24.176;2022-09-09T00:32:34;6.60;99.90
27270;DHT22;14769;56.934;24.176;2022-09-09T00:33:38;6.70;99.90
27270;DHT22;14769;56.934;24.176;2022-09-09T00:34:54;6.70;99.90
27270;DHT22;14769;56.934;24.176;2022-09-09T00:35:57;6.80;99.90
27270;DHT22;14769;56.934;24.176;2022-09-09T00:37:00;6.60;99.90
27270;DHT22;14769;56.934;24.176;2022-09-09T00:38:34;6.70;99.90
27270;DHT22;14769;56.934;24.176;2022-09-09T00:39:42;6.80;99.90
27270;DHT22;14769;56.934;24.176;2022-09-09T00:40:52;6.70;99.90
27270;DHT22;14769;56.934;24.176;2022-09-09T00:42:08;6.80;99.90
27270;DHT22;14769;56.934;24.176;2022-09-09T00:44:35;6.70;99.90
27270;DHT22;14769;56.934;24.176;2022-09-09T00:49:02;6.60;99.90
27270;DHT22;14769;56.934;24.176;2022-09-09T00:50:46;6.60;99.90
27270;DHT22;14769;56.934;24.176;2022-09-09T00:52:16;6.60;99.90
27270;DHT22;14769;56.934;24.176;2022-09-09T00:53:31;6.50;99.90
27270;DHT22;14769;56.934;24.176;2022-09-09T00:56:18;6.40;99.90
27270;DHT22;14769;56.934;24.176;2022-09-09T00:57:33;6.50;99.90
27270;DHT22;14769;56.934;24.176;2022-09-09T00:58:36;6.40;99.90
27270;DHT22;14769;56.934;24.176;2022-09-09T00:59:48;6.40;99.90
27270;DHT22;14769;56.934;24.176;2022-09-09T01:01:06;6.40;99.90
27270;DHT22;14769;56.934;24.176;2022-09-09T01:02:21;6.40;99.90
27270;DHT22;14769;56.934;24.176;2022-09-09T01:03:36;6.40;99.90
27270;DHT22;14769;56.934;24.176;2022-09-09T01:04:39;6.40;99.90
27270;DHT22;14769;56.934;24.176;2022-09-09T01:06:00;6.40;99.90
27270;DHT22;14769;56.934;24.176;2022-09-09T01:07:15;6.30;99.90
27270;DHT22;14769;56.934;24.176;2022-09-09T01:10:54;6.40;99.90
27270;DHT22;14769;56.934;24.176;2022-09-09T01:12:15;6.30;99.90
27270;DHT22;14769;56.934;24.176;2022-09-09T01:13:24;6.40;99.90
27270;DHT22;14769;56.934;24.176;2022-09-09T01:15:37;6.30;99.90
27270;DHT22;14769;56.934;24.176;2022-09-09T01:16:40;6.30;99.90
27270;DHT22;14769;56.934;24.176;2022-09-09T01:17:48;6.20;99.90
27270;DHT22;14769;56.934;24.176;2022-09-09T01:18:53;6.20;99.90
27270;DHT22;14769;56.934;24.176;2022-09-09T01:24:26;6.30;99.90
27270;DHT22;14769;56.934;24.176;2022-09-09T01:26:46;6.30;99.90
27270;DHT22;14769;56.934;24.176;2022-09-09T01:27:51;6.10;99.90
27270;DHT22;14769;56.934;24.176;2022-09-09T01:28:55;6.20;99.90
27270;DHT22;14769;56.934;24.176;2022-09-09T01:29:57;6.20;99.90
27270;DHT22;14769;56.934;24.176;2022-09-09T01:31:05;6.10;99.90
27270;DHT22;14769;56.934;24.176;2022-09-09T01:33:17;5.90;99.90
27270;DHT22;14769;56.934;24.176;2022-09-09T01:34:20;6.20;99.90
27270;DHT22;14769;56.934;24.176;2022-09-09T01:36:33;6.30;99.90
27270;DHT22;14769;56.934;24.176;2022-09-09T01:37:36;6.30;99.90
27270;DHT22;14769;56.934;24.176;2022-09-09T01:38:38;6.20;99.90
27270;DHT22;14769;56.934;24.176;2022-09-09T01:39:43;6.10;99.90
27270;DHT22;14769;56.934;24.176;2022-09-09T01:40:46;6.20;99.90
27270;DHT22;14769;56.934;24.176;2022-09-09T01:41:48;6.30;99.90
27270;DHT22;14769;56.934;24.176;2022-09-09T01:42:51;6.10;99.90
27270;DHT22;14769;56.934;24.176;2022-09-09T01:43:54;6.10;99.90
27270;DHT22;14769;56.934;24.176;2022-09-09T01:44:57;6.20;99.90
27270;DHT22;14769;56.934;24.176;2022-09-09T01:46:00;6.10;99.90
27270;DHT22;14769;56.934;24.176;2022-09-09T01:47:03;6.10;99.90
27270;DHT22;14769;56.934;24.176;2022-09-09T01:48:05;6.20;99.90
27270;DHT22;14769;56.934;24.176;2022-09-09T01:49:08;6.60;99.90
27270;DHT22;14769;56.934;24.176;2022-09-09T01:50:13;5.90;99.90
27270;DHT22;14769;56.934;24.176;2022-09-09T01:51:16;6.10;99.90
27270;DHT22;14769;56.934;24.176;2022-09-09T01:52:19;6.10;99.90
27270;DHT22;14769;56.934;24.176;2022-09-09T01:53:23;6.00;99.90
27270;DHT22;14769;56.934;24.176;2022-09-09T01:54:29;6.10;99.90
27270;DHT22;14769;56.934;24.176;2022-09-09T01:55:38;6.10;99.90
27270;DHT22;14769;56.934;24.176;2022-09-09T01:57:09;6.00;99.90
27270;DHT22;14769;56.934;24.176;2022-09-09T02:00:08;6.00;99.90
27270;DHT22;14769;56.934;24.176;2022-09-09T02:03:00;6.00;99.90
27270;DHT22;14769;56.934;24.176;2022-09-09T02:04:40;6.00;99.90
27270;DHT22;14769;56.934;24.176;2022-09-09T02:06:14;6.00;99.90
27270;DHT22;14769;56.934;24.176;2022-09-09T02:07:23;5.90;99.90
27270;DHT22;14769;56.934;24.176;2022-09-09T02:08:36;5.90;99.90
27270;DHT22;14769;56.934;24.176;2022-09-09T02:09:43;5.70;99.90
27270;DHT22;14769;56.934;24.176;2022-09-09T02:10:50;5.80;99.90
27270;DHT22;14769;56.934;24.176;2022-09-09T02:12:05;5.80;99.90
27270;DHT22;14769;56.934;24.176;2022-09-09T02:13:16;5.90;99.90
27270;DHT22;14769;56.934;24.176;2022-09-09T02:14:27;5.60;99.90
27270;DHT22;14769;56.934;24.176;2022-09-09T02:15:44;5.80;99.90
27270;DHT22;14769;56.934;24.176;2022-09-09T02:16:54;5.80;99.90
27270;DHT22;14769;56.934;24.176;2022-09-09T02:18:01;5.80;99.90
27270;DHT22;14769;56.934;24.176;2022-09-09T02:19:20;5.80;99.90
27270;DHT22;14769;56.934;24.176;2022-09-09T02:20:28;5.80;99.90
27270;DHT22;14769;56.934;24.176;2022-09-09T02:21:35;5.80;99.90
27270;DHT22;14769;56.934;24.176;2022-09-09T02:22:40;5.80;99.90
27270;DHT22;14769;56.934;24.176;2022-09-09T02:23:46;5.80;99.90
27270;DHT22;14769;56.934;24.176;2022-09-09T02:24:50;5.80;99.90
27270;DHT22;14769;56.934;24.176;2022-09-09T02:25:57;5.80;99.90
27270;DHT22;14769;56.934;24.176;2022-09-09T02:27:01;5.90;99.90
27270;DHT22;14769;56.934;24.176;2022-09-09T02:28:07;6.00;99.90
27270;DHT22;14769;56.934;24.176;2022-09-09T02:29:15;5.70;99.90
27270;DHT22;14769;56.934;24.176;2022-09-09T02:30:18;5.80;99.90
27270;DHT22;14769;56.934;24.176;2022-09-09T02:31:22;6.00;99.90
27270;DHT22;14769;56.934;24.176;2022-09-09T02:32:26;5.80;99.90
27270;DHT22;14769;56.934;24.176;2022-09-09T02:33:34;5.80;99.90
27270;DHT22;14769;56.934;24.176;2022-09-09T02:34:40;5.80;99.90
27270;DHT22;14769;56.934;24.176;2022-09-09T02:35:45;5.80;99.90
27270;DHT22;14769;56.934;24.176;2022-09-09T02:36:49;5.80;99.90
27270;DHT22;14769;56.934;24.176;2022-09-09T02:37:55;5.80;99.90
27270;DHT22;14769;56.934;24.176;2022-09-09T02:38:58;5.80;99.90
27270;DHT22;14769;56.934;24.176;2022-09-09T02:40:03;5.80;99.90
27270;DHT22;14769;56.934;24.176;2022-09-09T02:41:06;5.80;99.90
27270;DHT22;14769;56.934;24.176;2022-09-09T02:42:08;5.80;99.90
27270;DHT22;14769;56.934;24.176;2022-09-09T02:43:09;5.80;99.90
27270;DHT22;14769;56.934;24.176;2022-09-09T02:44:13;5.70;99.90
27270;DHT22;14769;56.934;24.176;2022-09-09T02:45:18;5.70;99.90
27270;DHT22;14769;56.934;24.176;2022-09-09T02:46:27;5.80;99.90
27270;DHT22;14769;56.934;24.176;2022-09-09T02:47:59;5.80;99.90
27270;DHT22;14769;56.934;24.176;2022-09-09T02:50:27;5.80;99.90
27270;DHT22;14769;56.934;24.176;2022-09-09T02:54:00;5.70;99.90
27270;DHT22;14769;56.934;24.176;2022-09-09T02:56:38;5.80;99.90
27270;DHT22;14769;56.934;24.176;2022-09-09T02:57:42;5.70;99.90
27270;DHT22;14769;56.934;24.176;2022-09-09T02:58:47;5.70;99.90
27270;DHT22;14769;56.934;24.176;2022-09-09T02:59:49;5.70;99.90
27270;DHT22;14769;56.934;24.176;2022-09-09T03:00:52;5.70;99.90
27270;DHT22;14769;56.934;24.176;2022-09-09T03:01:54;5.60;99.90
27270;DHT22;14769;56.934;24.176;2022-09-09T03:02:59;5.80;99.90
27270;DHT22;14769;56.934;24.176;2022-09-09T03:04:02;5.70;99.90
27270;DHT22;14769;56.934;24.176;2022-09-09T03:05:06;6.40;99.90
27270;DHT22;14769;56.934;24.176;2022-09-09T03:06:08;5.80;99.90
27270;DHT22;14769;56.934;24.176;2022-09-09T03:07:11;5.70;99.90
27270;DHT22;14769;56.934;24.176;2022-09-09T03:08:14;5.70;99.90
27270;DHT22;14769;56.934;24.176;2022-09-09T03:09:16;5.70;99.90
27270;DHT22;14769;56.934;24.176;2022-09-09T03:10:18;5.70;99.90
27270;DHT22;14769;56.934;24.176;2022-09-09T03:11:20;5.60;99.90
27270;DHT22;14769;56.934;24.176;2022-09-09T03:12:22;5.50;99.90
27270;DHT22;14769;56.934;24.176;2022-09-09T03:13:26;5.60;99.90
27270;DHT22;14769;56.934;24.176;2022-09-09T03:14:28;5.60;99.90
27270;DHT22;14769;56.934;24.176;2022-09-09T03:15:30;6.20;99.90
27270;DHT22;14769;56.934;24.176;2022-09-09T03:16:32;5.60;99.90
27270;DHT22;14769;56.934;24.176;2022-09-09T03:17:43;5.30;99.90
27270;DHT22;14769;56.934;24.176;2022-09-09T03:18:45;5.90;99.90
27270;DHT22;14769;56.934;24.176;2022-09-09T03:19:47;6.00;99.90
27270;DHT22;14769;56.934;24.176;2022-09-09T03:20:54;5.50;99.90
27270;DHT22;14769;56.934;24.176;2022-09-09T03:21:59;6.10;99.90
27270;DHT22;14769;56.934;24.176;2022-09-09T03:23:02;5.40;99.90
27270;DHT22;14769;56.934;24.176;2022-09-09T03:24:05;6.10;99.90
27270;DHT22;14769;56.934;24.176;2022-09-09T03:25:09;5.60;99.90
27270;DHT22;14769;56.934;24.176;2022-09-09T03:26:11;5.40;99.90
27270;DHT22;14769;56.934;24.176;2022-09-09T03:27:15;5.50;99.90
27270;DHT22;14769;56.934;24.176;2022-09-09T03:28:19;5.80;99.90
27270;DHT22;14769;56.934;24.176;2022-09-09T03:29:25;5.60;99.90
27270;DHT22;14769;56.934;24.176;2022-09-09T03:30:30;6.00;99.90
27270;DHT22;14769;56.934;24.176;2022-09-09T03:31:33;5.50;99.90
27270;DHT22;14769;56.934;24.176;2022-09-09T03:32:35;5.50;99.90
27270;DHT22;14769;56.934;24.176;2022-09-09T03:33:39;5.50;99.90
27270;DHT22;14769;56.934;24.176;2022-09-09T03:34:43;5.40;99.90
27270;DHT22;14769;56.934;24.176;2022-09-09T03:35:49;5.60;99.90
27270;DHT22;14769;56.934;24.176;2022-09-09T03:36:51;5.40;99.90
27270;DHT22;14769;56.934;24.176;2022-09-09T03:37:53;5.50;99.90
27270;DHT22;14769;56.934;24.176;2022-09-09T03:38:57;5.50;99.90
27270;DHT22;14769;56.934;24.176;2022-09-09T03:39:59;5.50;99.90
27270;DHT22;14769;56.934;24.176;2022-09-09T03:41:01;5.40;99.90
27270;DHT22;14769;56.934;24.176;2022-09-09T03:42:03;5.60;99.90
27270;DHT22;14769;56.934;24.176;2022-09-09T03:43:05;5.50;99.90
27270;DHT22;14769;56.934;24.176;2022-09-09T03:44:07;5.60;99.90
27270;DHT22;14769;56.934;24.176;2022-09-09T03:45:09;5.50;99.90
27270;DHT22;14769;56.934;24.176;2022-09-09T03:46:15;5.50;99.90
27270;DHT22;14769;56.934;24.176;2022-09-09T03:47:21;5.40;99.90
27270;DHT22;14769;56.934;24.176;2022-09-09T03:48:24;5.40;99.90
27270;DHT22;14769;56.934;24.176;2022-09-09T03:49:31;5.90;99.90
27270;DHT22;14769;56.934;24.176;2022-09-09T03:50:45;6.10;99.90
27270;DHT22;14769;56.934;24.176;2022-09-09T03:51:49;5.60;99.90
27270;DHT22;14769;56.934;24.176;2022-09-09T03:52:51;6.00;99.90
27270;DHT22;14769;56.934;24.176;2022-09-09T03:53:56;6.00;99.90
27270;DHT22;14769;56.934;24.176;2022-09-09T03:55:06;5.80;99.90
27270;DHT22;14769;56.934;24.176;2022-09-09T03:56:09;5.70;99.90
27270;DHT22;14769;56.934;24.176;2022-09-09T03:57:14;5.50;99.90
27270;DHT22;14769;56.934;24.176;2022-09-09T03:58:31;5.70;99.90
27270;DHT22;14769;56.934;24.176;2022-09-09T03:59:37;6.10;99.90
27270;DHT22;14769;56.934;24.176;2022-09-09T04:00:39;6.00;99.90
27270;DHT22;14769;56.934;24.176;2022-09-09T04:01:47;5.50;99.90
27270;DHT22;14769;56.934;24.176;2022-09-09T04:02:49;5.50;99.90
27270;DHT22;14769;56.934;24.176;2022-09-09T04:03:51;5.50;99.90
27270;DHT22;14769;56.934;24.176;2022-09-09T04:04:54;5.50;99.90
27270;DHT22;14769;56.934;24.176;2022-09-09T04:05:58;5.50;99.90
27270;DHT22;14769;56.934;24.176;2022-09-09T04:07:00;5.50;99.90
27270;DHT22;14769;56.934;24.176;2022-09-09T04:08:02;5.50;99.90
27270;DHT22;14769;56.934;24.176;2022-09-09T04:09:04;5.50;99.90
27270;DHT22;14769;56.934;24.176;2022-09-09T04:10:07;5.60;99.90
27270;DHT22;14769;56.934;24.176;2022-09-09T04:11:10;5.60;99.90
27270;DHT22;14769;56.934;24.176;2022-09-09T04:12:11;5.50;99.90
27270;DHT22;14769;56.934;24.176;2022-09-09T04:13:15;5.50;99.90
27270;DHT22;14769;56.934;24.176;2022-09-09T04:14:19;5.50;99.90
27270;DHT22;14769;56.934;24.176;2022-09-09T04:15:21;5.60;99.90
27270;DHT22;14769;56.934;24.176;2022-09-09T04:16:23;5.60;99.90
27270;DHT22;14769;56.934;24.176;2022-09-09T04:17:25;5.60;99.90
27270;DHT22;14769;56.934;24.176;2022-09-09T04:18:27;5.60;99.90
27270;DHT22;14769;56.934;24.176;2022-09-09T04:20:04;5.60;99.90
27270;DHT22;14769;56.934;24.176;2022-09-09T04:21:53;5.90;99.90
27270;DHT22;14769;56.934;24.176;2022-09-09T04:22:55;5.40;99.90
27270;DHT22;14769;56.934;24.176;2022-09-09T04:23:57;5.50;99.90
27270;DHT22;14769;56.934;24.176;2022-09-09T04:24:59;5.60;99.90
27270;DHT22;14769;56.934;24.176;2022-09-09T04:26:02;5.60;99.90
27270;DHT22;14769;56.934;24.176;2022-09-09T04:27:04;5.60;99.90
27270;DHT22;14769;56.934;24.176;2022-09-09T04:28:06;5.70;99.90
27270;DHT22;14769;56.934;24.176;2022-09-09T04:29:08;5.70;99.90
27270;DHT22;14769;56.934;24.176;2022-09-09T04:30:10;5.70;99.90
27270;DHT22;14769;56.934;24.176;2022-09-09T04:31:19;5.80;99.90
27270;DHT22;14769;56.934;24.176;2022-09-09T04:32:23;5.70;99.90
27270;DHT22;14769;56.934;24.176;2022-09-09T04:33:28;5.70;99.90
27270;DHT22;14769;56.934;24.176;2022-09-09T04:34:30;5.70;99.90
27270;DHT22;14769;56.934;24.176;2022-09-09T04:35:33;6.10;99.90
27270;DHT22;14769;56.934;24.176;2022-09-09T04:36:36;5.80;99.90
27270;DHT22;14769;56.934;24.176;2022-09-09T04:37:40;5.80;99.90
27270;DHT22;14769;56.934;24.176;2022-09-09T04:38:42;5.90;99.90
27270;DHT22;14769;56.934;24.176;2022-09-09T04:39:47;5.80;99.90
27270;DHT22;14769;56.934;24.176;2022-09-09T04:40:50;5.90;99.90
27270;DHT22;14769;56.934;24.176;2022-09-09T04:41:53;5.80;99.90
27270;DHT22;14769;56.934;24.176;2022-09-09T04:42:58;5.90;99.90
27270;DHT22;14769;56.934;24.176;2022-09-09T04:44:01;6.00;99.90
27270;DHT22;14769;56.934;24.176;2022-09-09T04:45:03;6.00;99.90
27270;DHT22;14769;56.934;24.176;2022-09-09T04:46:05;6.10;99.90
27270;DHT22;14769;56.934;24.176;2022-09-09T04:47:08;6.60;99.90
27270;DHT22;14769;56.934;24.176;2022-09-09T04:48:11;6.00;99.90
27270;DHT22;14769;56.934;24.176;2022-09-09T04:49:13;6.70;99.90
27270;DHT22;14769;56.934;24.176;2022-09-09T04:50:16;6.10;99.90
27270;DHT22;14769;56.934;24.176;2022-09-09T04:51:23;6.10;99.90
27270;DHT22;14769;56.934;24.176;2022-09-09T04:52:28;6.40;99.90
27270;DHT22;14769;56.934;24.176;2022-09-09T04:53:31;6.00;99.90
27270;DHT22;14769;56.934;24.176;2022-09-09T04:54:37;6.10;99.90
27270;DHT22;14769;56.934;24.176;2022-09-09T04:55:52;6.50;99.90
27270;DHT22;14769;56.934;24.176;2022-09-09T04:56:58;6.30;99.90
27270;DHT22;14769;56.934;24.176;2022-09-09T04:58:12;6.10;99.90
27270;DHT22;14769;56.934;24.176;2022-09-09T04:59:44;6.30;99.90
27270;DHT22;14769;56.934;24.176;2022-09-09T05:00:48;7.00;99.90
27270;DHT22;14769;56.934;24.176;2022-09-09T05:01:56;6.60;99.90
27270;DHT22;14769;56.934;24.176;2022-09-09T05:03:10;6.40;99.90
27270;DHT22;14769;56.934;24.176;2022-09-09T05:04:12;6.60;99.90
27270;DHT22;14769;56.934;24.176;2022-09-09T05:05:15;6.40;99.90
27270;DHT22;14769;56.934;24.176;2022-09-09T05:06:20;6.50;99.90
27270;DHT22;14769;56.934;24.176;2022-09-09T05:07:30;6.30;99.90
27270;DHT22;14769;56.934;24.176;2022-09-09T05:08:45;6.50;99.90
27270;DHT22;14769;56.934;24.176;2022-09-09T05:09:49;6.40;99.90
27270;DHT22;14769;56.934;24.176;2022-09-09T05:10:51;6.40;99.90
27270;DHT22;14769;56.934;24.176;2022-09-09T05:11:54;6.60;99.90
27270;DHT22;14769;56.934;24.176;2022-09-09T05:12:59;6.60;99.90
27270;DHT22;14769;56.934;24.176;2022-09-09T05:14:02;6.90;99.90
27270;DHT22;14769;56.934;24.176;2022-09-09T05:15:07;6.80;99.90
27270;DHT22;14769;56.934;24.176;2022-09-09T05:16:09;6.90;99.90
27270;DHT22;14769;56.934;24.176;2022-09-09T05:17:13;6.80;99.90
27270;DHT22;14769;56.934;24.176;2022-09-09T05:18:15;6.80;99.90
27270;DHT22;14769;56.934;24.176;2022-09-09T05:19:20;6.90;99.90
27270;DHT22;14769;56.934;24.176;2022-09-09T05:20:22;6.90;99.90
27270;DHT22;14769;56.934;24.176;2022-09-09T05:21:25;7.60;99.90
27270;DHT22;14769;56.934;24.176;2022-09-09T05:22:28;6.90;99.90
27270;DHT22;14769;56.934;24.176;2022-09-09T05:23:30;7.10;99.90
27270;DHT22;14769;56.934;24.176;2022-09-09T05:24:33;6.90;99.90
27270;DHT22;14769;56.934;24.176;2022-09-09T05:25:39;7.00;99.90
27270;DHT22;14769;56.934;24.176;2022-09-09T05:26:44;7.20;99.90
27270;DHT22;14769;56.934;24.176;2022-09-09T05:27:46;7.00;99.90
27270;DHT22;14769;56.934;24.176;2022-09-09T05:28:48;7.10;99.90
27270;DHT22;14769;56.934;24.176;2022-09-09T05:29:50;7.20;99.90
27270;DHT22;14769;56.934;24.176;2022-09-09T05:30:59;7.20;99.90
27270;DHT22;14769;56.934;24.176;2022-09-09T05:32:02;7.30;99.90
27270;DHT22;14769;56.934;24.176;2022-09-09T05:33:04;7.30;99.90
27270;DHT22;14769;56.934;24.176;2022-09-09T05:34:08;7.30;99.90
27270;DHT22;14769;56.934;24.176;2022-09-09T05:35:10;7.30;99.90
27270;DHT22;14769;56.934;24.176;2022-09-09T05:36:20;7.30;99.90
27270;DHT22;14769;56.934;24.176;2022-09-09T05:37:22;7.40;99.90
27270;DHT22;14769;56.934;24.176;2022-09-09T05:38:25;7.50;99.90
27270;DHT22;14769;56.934;24.176;2022-09-09T05:39:29;7.50;99.90
27270;DHT22;14769;56.934;24.176;2022-09-09T05:40:31;7.60;99.90
27270;DHT22;14769;56.934;24.176;2022-09-09T05:41:33;7.50;99.90
27270;DHT22;14769;56.934;24.176;2022-09-09T05:42:36;7.60;99.90
27270;DHT22;14769;56.934;24.176;2022-09-09T05:43:38;7.70;99.90
27270;DHT22;14769;56.934;24.176;2022-09-09T05:44:40;7.70;99.90
27270;DHT22;14769;56.934;24.176;2022-09-09T05:45:43;7.80;99.90
27270;DHT22;14769;56.934;24.176;2022-09-09T05:46:45;7.80;99.90
27270;DHT22;14769;56.934;24.176;2022-09-09T05:48:00;7.90;99.90
27270;DHT22;14769;56.934;24.176;2022-09-09T05:49:08;7.80;99.90
27270;DHT22;14769;56.934;24.176;2022-09-09T05:50:10;7.80;99.90
27270;DHT22;14769;56.934;24.176;2022-09-09T05:51:15;8.00;99.90
27270;DHT22;14769;56.934;24.176;2022-09-09T05:52:17;8.20;99.90
27270;DHT22;14769;56.934;24.176;2022-09-09T05:53:19;8.10;99.90
27270;DHT22;14769;56.934;24.176;2022-09-09T05:54:21;8.20;99.90
27270;DHT22;14769;56.934;24.176;2022-09-09T05:55:24;8.50;99.90
27270;DHT22;14769;56.934;24.176;2022-09-09T05:56:29;8.30;99.90
27270;DHT22;14769;56.934;24.176;2022-09-09T05:57:31;8.70;99.90
27270;DHT22;14769;56.934;24.176;2022-09-09T05:58:34;8.40;99.90
27270;DHT22;14769;56.934;24.176;2022-09-09T05:59:36;8.30;99.90
27270;DHT22;14769;56.934;24.176;2022-09-09T06:00:38;8.60;99.90
27270;DHT22;14769;56.934;24.176;2022-09-09T06:01:40;8.60;99.90
27270;DHT22;14769;56.934;24.176;2022-09-09T06:02:42;8.70;99.90
27270;DHT22;14769;56.934;24.176;2022-09-09T06:03:47;8.80;99.90
27270;DHT22;14769;56.934;24.176;2022-09-09T06:04:49;8.90;99.90
27270;DHT22;14769;56.934;24.176;2022-09-09T06:06:00;8.80;99.90
27270;DHT22;14769;56.934;24.176;2022-09-09T06:07:02;8.90;99.90
27270;DHT22;14769;56.934;24.176;2022-09-09T06:08:04;8.90;99.90
27270;DHT22;14769;56.934;24.176;2022-09-09T06:09:07;8.90;99.90
27270;DHT22;14769;56.934;24.176;2022-09-09T06:10:11;8.80;99.90
27270;DHT22;14769;56.934;24.176;2022-09-09T06:11:18;8.90;99.90
27270;DHT22;14769;56.934;24.176;2022-09-09T06:12:20;8.90;99.90
27270;DHT22;14769;56.934;24.176;2022-09-09T06:13:22;9.00;99.90
27270;DHT22;14769;56.934;24.176;2022-09-09T06:14:25;9.10;99.90
27270;DHT22;14769;56.934;24.176;2022-09-09T06:15:28;9.10;99.90
27270;DHT22;14769;56.934;24.176;2022-09-09T06:16:32;9.10;99.90
27270;DHT22;14769;56.934;24.176;2022-09-09T06:17:35;9.10;99.90
27270;DHT22;14769;56.934;24.176;2022-09-09T06:18:37;9.20;99.90
27270;DHT22;14769;56.934;24.176;2022-09-09T06:19:39;9.20;99.90
27270;DHT22;14769;56.934;24.176;2022-09-09T06:20:41;9.30;99.90
27270;DHT22;14769;56.934;24.176;2022-09-09T06:21:43;9.40;99.90
27270;DHT22;14769;56.934;24.176;2022-09-09T06:22:45;9.40;99.90
27270;DHT22;14769;56.934;24.176;2022-09-09T06:23:50;9.50;99.90
27270;DHT22;14769;56.934;24.176;2022-09-09T06:25:01;9.40;99.90
27270;DHT22;14769;56.934;24.176;2022-09-09T06:26:15;9.60;99.90
27270;DHT22;14769;56.934;24.176;2022-09-09T06:27:18;9.70;99.90
27270;DHT22;14769;56.934;24.176;2022-09-09T06:28:20;9.70;99.90
27270;DHT22;14769;56.934;24.176;2022-09-09T06:29:22;9.70;99.90
27270;DHT22;14769;56.934;24.176;2022-09-09T06:30:24;9.90;99.90
27270;DHT22;14769;56.934;24.176;2022-09-09T06:31:27;10.20;99.90
27270;DHT22;14769;56.934;24.176;2022-09-09T06:32:32;10.20;99.90
27270;DHT22;14769;56.934;24.176;2022-09-09T06:33:40;10.20;99.90
27270;DHT22;14769;56.934;24.176;2022-09-09T06:34:42;10.20;99.90
27270;DHT22;14769;56.934;24.176;2022-09-09T06:35:51;10.20;99.90
27270;DHT22;14769;56.934;24.176;2022-09-09T06:36:54;10.20;99.90
27270;DHT22;14769;56.934;24.176;2022-09-09T06:37:59;10.30;99.90
27270;DHT22;14769;56.934;24.176;2022-09-09T06:39:01;10.20;99.90
27270;DHT22;14769;56.934;24.176;2022-09-09T06:40:03;10.30;99.90
27270;DHT22;14769;56.934;24.176;2022-09-09T06:41:05;10.30;99.90
27270;DHT22;14769;56.934;24.176;2022-09-09T06:42:07;10.40;99.90
27270;DHT22;14769;56.934;24.176;2022-09-09T06:43:10;10.30;99.90
27270;DHT22;14769;56.934;24.176;2022-09-09T06:44:11;10.40;99.90
27270;DHT22;14769;56.934;24.176;2022-09-09T06:45:13;10.30;99.90
27270;DHT22;14769;56.934;24.176;2022-09-09T06:46:20;10.40;99.90
27270;DHT22;14769;56.934;24.176;2022-09-09T06:47:23;10.50;99.90
27270;DHT22;14769;56.934;24.176;2022-09-09T06:48:27;10.50;99.90
27270;DHT22;14769;56.934;24.176;2022-09-09T06:49:29;10.60;99.90
27270;DHT22;14769;56.934;24.176;2022-09-09T06:50:31;10.60;99.90
27270;DHT22;14769;56.934;24.176;2022-09-09T06:51:37;10.60;99.90
27270;DHT22;14769;56.934;24.176;2022-09-09T06:52:45;10.60;99.90
27270;DHT22;14769;56.934;24.176;2022-09-09T06:53:50;10.60;99.90
27270;DHT22;14769;56.934;24.176;2022-09-09T06:54:55;10.60;99.90
27270;DHT22;14769;56.934;24.176;2022-09-09T06:55:56;10.60;99.90
27270;DHT22;14769;56.934;24.176;2022-09-09T06:56:58;10.70;99.90
27270;DHT22;14769;56.934;24.176;2022-09-09T06:58:21;10.70;99.90
27270;DHT22;14769;56.934;24.176;2022-09-09T06:59:26;10.80;99.90
27270;DHT22;14769;56.934;24.176;2022-09-09T07:00:28;10.80;99.90
27270;DHT22;14769;56.934;24.176;2022-09-09T07:01:34;10.80;99.90
27270;DHT22;14769;56.934;24.176;2022-09-09T07:02:36;10.90;99.90
27270;DHT22;14769;56.934;24.176;2022-09-09T07:03:42;10.90;99.90
27270;DHT22;14769;56.934;24.176;2022-09-09T07:04:44;10.90;99.90
27270;DHT22;14769;56.934;24.176;2022-09-09T07:05:54;11.00;99.90
27270;DHT22;14769;56.934;24.176;2022-09-09T07:06:56;11.00;99.90
27270;DHT22;14769;56.934;24.176;2022-09-09T07:07:58;11.10;99.90
27270;DHT22;14769;56.934;24.176;2022-09-09T07:09:03;11.10;99.90
27270;DHT22;14769;56.934;24.176;2022-09-09T07:10:05;11.10;99.90
27270;DHT22;14769;56.934;24.176;2022-09-09T07:11:09;11.20;99.90
27270;DHT22;14769;56.934;24.176;2022-09-09T07:12:13;11.20;99.90
27270;DHT22;14769;56.934;24.176;2022-09-09T07:13:14;11.20;99.90
27270;DHT22;14769;56.934;24.176;2022-09-09T07:14:17;11.20;99.90
27270;DHT22;14769;56.934;24.176;2022-09-09T07:15:19;11.20;99.90
27270;DHT22;14769;56.934;24.176;2022-09-09T07:16:22;11.20;99.90
27270;DHT22;14769;56.934;24.176;2022-09-09T07:17:27;11.30;99.80
27270;DHT22;14769;56.934;24.176;2022-09-09T07:18:30;11.30;99.60
27270;DHT22;14769;56.934;24.176;2022-09-09T07:19:33;11.40;99.40
27270;DHT22;14769;56.934;24.176;2022-09-09T07:20:35;11.90;99.30
27270;DHT22;14769;56.934;24.176;2022-09-09T07:21:37;11.50;99.00
27270;DHT22;14769;56.934;24.176;2022-09-09T07:22:39;11.80;98.70
27270;DHT22;14769;56.934;24.176;2022-09-09T07:23:41;11.50;98.30
27270;DHT22;14769;56.934;24.176;2022-09-09T07:24:43;11.60;97.90
27270;DHT22;14769;56.934;24.176;2022-09-09T07:25:47;11.60;97.60
27270;DHT22;14769;56.934;24.176;2022-09-09T07:26:49;11.60;97.40
27270;DHT22;14769;56.934;24.176;2022-09-09T07:27:56;11.60;97.20
27270;DHT22;14769;56.934;24.176;2022-09-09T07:28:58;11.70;97.10
27270;DHT22;14769;56.934;24.176;2022-09-09T07:30:00;11.70;96.90
27270;DHT22;14769;56.934;24.176;2022-09-09T07:31:02;11.70;96.80